Aurora, CO (80042)

7:59 AM MST on November 23, 2014 (GMT -0700)
North Aurora / Fitzsimmons | Change Station
CLOSE
Current Station
Personal Weather Station
Location: Aurora, CO
Elevation: 5364 ft
Nearby Weather Stations

Elev 5364 ft 39.75 °N, 104.85 °W | Updated 3 seconds ago

Overcast
Overcast
35.8 °F
Feels Like 36 °F
N
0.0
Wind Variable Wind from North
Gusts 0.0 mph

Today
High -- | Low -- °F
--% Chance of Precip.
Yesterday
High -- | Low -- °F
Precip. -- in
6:52 AM 4:38 PM
New Moon, 1% visible
Pressure 29.77 in
Visibility 10.0 miles
Clouds Few 2000 ft
Scattered Clouds 3000 ft
Mostly Cloudy 5000 ft
Overcast 9000 ft
Windchill 36 °F
Dew Point 22 °F
Humidity 58%
Rainfall 0.00 in
Snow Depth Not available.
UV 0 out of 12
Pollen .10 out of 12
Air Quality Not available.
Flu Activity Not available.
SPECI KBKF 231434Z 10003KT 10SM FEW020 SCT030 BKN050 OVC090 00/M04 A2977 RMK AO2A

More Conditions Fewer Conditions

Pressure 29.77 in
Visibility 10.0 miles
Clouds Few 2000 ft
Scattered Clouds 3000 ft
Mostly Cloudy 5000 ft
Overcast 9000 ft
Windchill 36 °F
Dew Point 22 °F
Humidity 58%
Rainfall 0.00 in
Snow Depth Not available.
UV 0 out of 12
Pollen .10 out of 12
Air Quality Not available.
Flu Activity Not available.
SPECI KBKF 231434Z 10003KT 10SM FEW020 SCT030 BKN050 OVC090 00/M04 A2977 RMK AO2A

More Conditions Fewer Conditions

Nowcast | as of 6:12 am MST on November 23, 2014

Scattered snow showers will continue across portions of the Front Range urban corridor through 8 am. Most of these will occur from near downtown Denver southward to the southern Denver suburbs and then across Douglas County. Up to an inch of accumulation will be possible in the heavier showers. Most areas will only see a dusting.

×

10-Day Weather Forecast

Almanac

Astronomy

Nov. 23, 2014 Rise Set
Actual Time
Civil Twilight
Nautical Twilight
Astronomical Twilight
Moon
Length of Visible Light
Length of Day
Tomorrow will be .
, % of the Moon is Illuminated

Today's Extremes

State Highs State Lows

Community

WunderPhotos

Upload Photos

1,773,078 photos uploaded!

WunderBlogs® & News

Nearby

Air Quality

  Air Quality AQ Index Pollutant
Not available.

Snow Depth

Station Depth Elevation

Earthquake Activity

City Distance Mag. Time & Date
Minimum magnitude displayed is 2.5.

Coastal Water Temperatures

Place Temperature

Nearby Weather Stations